Time;durP1;ratioP1;P1;durP2;ratioP2;P2;SDS_P1;SDS_P2;PMS_P1;PMS_P2;Temp;Humidity;BMP_temperature;BMP_pressure;BME280_temperature;BME280_humidity;BME280_pressure;Samples;Min_cycle;Max_cycle;Signal;HPM_P1;HPM_P2
2022/08/06 00:00:28;;;;;;;1.48;0.50;;;25.40;44.50;;;;;;2588491;53;20961;-71
2022/08/06 00:02:56;;;;;;;1.87;0.68;;;25.40;44.60;;;;;;2341045;55;20940;-73
2022/08/06 00:05:25;;;;;;;1.62;0.70;;;25.40;44.70;;;;;;2588845;53;21461;-72
2022/08/06 00:07:56;;;;;;;2.15;0.60;;;25.40;44.70;;;;;;2392363;53;20960;-71
2022/08/06 00:10:23;;;;;;;1.83;0.63;;;25.40;44.60;;;;;;2536881;54;21458;-71
2022/08/06 00:12:50;;;;;;;1.62;0.70;;;25.30;44.50;;;;;;2319049;55;21017;-71
2022/08/06 00:15:20;;;;;;;2.65;0.77;;;25.40;44.60;;;;;;2313675;55;21012;-70
2022/08/06 00:17:47;;;;;;;1.27;0.60;;;25.40;44.80;;;;;;2322563;53;21009;-72
2022/08/06 00:20:14;;;;;;;2.50;0.70;;;25.30;44.60;;;;;;2508144;53;20950;-71
2022/08/06 00:22:41;;;;;;;1.60;0.70;;;25.30;44.60;;;;;;2413310;53;20942;-71
2022/08/06 00:25:09;;;;;;;1.40;0.60;;;25.30;44.50;;;;;;2418739;53;20946;-71
2022/08/06 00:27:39;;;;;;;1.65;0.60;;;25.30;44.60;;;;;;2342132;55;20931;-72
2022/08/06 00:30:16;;;;;;;1.12;0.60;;;25.30;44.50;;;;;;2337906;55;21010;-73
2022/08/06 00:32:42;;;;;;;3.33;0.90;;;25.30;44.50;;;;;;2343175;54;20999;-70
2022/08/06 00:35:09;;;;;;;1.73;0.60;;;25.30;44.40;;;;;;2444716;54;21462;-73
2022/08/06 00:37:36;;;;;;;1.80;0.75;;;25.20;44.30;;;;;;2338408;54;21464;-73
2022/08/06 00:40:03;;;;;;;2.40;0.73;;;25.20;44.30;;;;;;2326446;54;21487;-71
2022/08/06 00:42:30;;;;;;;2.20;0.70;;;25.20;44.30;;;;;;2343394;54;21026;-72
2022/08/06 00:45:02;;;;;;;1.67;0.70;;;25.20;44.30;;;;;;2344637;57;21566;-71
2022/08/06 00:47:29;;;;;;;2.15;0.82;;;25.20;44.60;;;;;;2359088;54;21018;-72
2022/08/06 00:49:56;;;;;;;2.58;1.00;;;25.20;44.50;;;;;;2433607;53;20954;-73
2022/08/06 00:52:23;;;;;;;2.05;0.80;;;25.10;44.60;;;;;;2343361;54;20934;-72
2022/08/06 00:54:49;;;;;;;2.37;0.60;;;25.10;44.60;;;;;;2343577;55;21001;-72
2022/08/06 00:57:16;;;;;;;1.70;0.88;;;25.10;44.60;;;;;;2343812;54;20986;-72
2022/08/06 00:59:44;;;;;;;1.42;0.60;;;25.10;44.60;;;;;;2415812;53;20986;-74
2022/08/06 01:02:11;;;;;;;2.05;0.80;;;25.10;44.50;;;;;;2371098;53;20978;-72
2022/08/06 01:04:37;;;;;;;2.10;0.70;;;25.10;44.60;;;;;;2322718;54;21002;-73
2022/08/06 01:07:04;;;;;;;2.20;0.80;;;25.10;44.60;;;;;;2383165;53;20970;-72
2022/08/06 01:09:31;;;;;;;1.37;0.60;;;25.00;44.50;;;;;;2343537;54;20998;-72
2022/08/06 01:11:57;;;;;;;1.98;0.62;;;25.00;44.60;;;;;;2343902;54;21733;-72
2022/08/06 01:14:24;;;;;;;2.08;0.60;;;25.00;44.70;;;;;;2344560;54;21530;-72
2022/08/06 01:16:58;;;;;;;1.90;0.57;;;25.00;44.80;;;;;;2566698;53;21712;-71
2022/08/06 01:20:52;;;;;;;1.42;0.60;;;25.00;44.80;;;;;;2341288;54;20886;-70
2022/08/06 01:24:09;;;;;;;4.50;0.70;;;25.00;44.80;;;;;;2510899;53;20997;-72
2022/08/06 01:27:19;;;;;;;1.77;0.70;;;25.00;44.70;;;;;;2344603;55;21065;-70
2022/08/06 01:29:48;;;;;;;3.25;0.60;;;25.00;44.70;;;;;;2575196;53;20918;-70
2022/08/06 01:32:17;;;;;;;1.10;0.50;;;25.00;44.50;;;;;;2330319;54;21473;-72
2022/08/06 01:34:55;;;;;;;1.55;0.60;;;24.90;44.50;;;;;;2376947;53;21363;-70
2022/08/06 01:40:32;;;;;;;1.45;0.57;;;24.90;44.80;;;;;;2513586;53;20954;-71
2022/08/06 01:42:59;;;;;;;1.30;0.60;;;24.90;44.60;;;;;;2370245;53;21018;-73
2022/08/06 01:45:37;;;;;;;1.17;0.50;;;24.90;44.40;;;;;;2344647;54;21569;-72
2022/08/06 01:48:58;;;;;;;1.73;0.60;;;24.80;44.40;;;;;;2422775;54;20994;-69
2022/08/06 01:51:25;;;;;;;1.17;0.55;;;24.80;44.40;;;;;;2527589;54;21883;-70
2022/08/06 01:53:51;;;;;;;3.30;0.60;;;24.80;44.30;;;;;;2318277;54;20994;-70
2022/08/06 01:56:18;;;;;;;1.50;0.57;;;24.70;44.30;;;;;;2391399;54;20974;-71
2022/08/06 01:58:45;;;;;;;1.73;0.60;;;24.70;44.20;;;;;;2340376;54;20988;-70
2022/08/06 02:01:12;;;;;;;1.65;0.68;;;24.60;44.20;;;;;;2343723;54;20924;-70
2022/08/06 02:03:49;;;;;;;2.03;0.62;;;24.60;44.20;;;;;;2346869;53;20996;-71
2022/08/06 02:06:21;;;;;;;1.40;0.60;;;24.60;44.30;;;;;;2343902;55;20981;-71
2022/08/06 02:08:48;;;;;;;1.27;0.40;;;24.50;44.10;;;;;;2341953;54;20964;-73
2022/08/06 02:11:14;;;;;;;1.15;0.55;;;24.50;44.20;;;;;;2324454;54;20929;-70
2022/08/06 02:13:42;;;;;;;1.42;0.60;;;24.40;44.10;;;;;;2328466;54;21562;-70
2022/08/06 02:16:09;;;;;;;1.50;0.60;;;24.40;44.30;;;;;;2320359;54;20929;-72
2022/08/06 02:18:39;;;;;;;1.55;0.65;;;24.50;44.40;;;;;;2321876;54;20910;-69
2022/08/06 02:21:10;;;;;;;1.60;0.65;;;24.40;44.60;;;;;;2333734;54;20969;-71
2022/08/06 02:24:04;;;;;;;1.95;0.70;;;24.40;44.60;;;;;;2319280;54;21009;-71
2022/08/06 02:26:35;;;;;;;1.52;0.70;;;24.40;45.00;;;;;;2342659;55;20996;-71
2022/08/06 02:29:04;;;;;;;1.73;0.73;;;24.50;44.90;;;;;;2398075;53;20953;-70
2022/08/06 02:31:31;;;;;;;2.95;0.60;;;24.40;44.80;;;;;;2339960;54;20960;-69
2022/08/06 02:33:58;;;;;;;1.77;0.60;;;24.40;44.80;;;;;;2315030;54;20937;-69
2022/08/06 02:36:29;;;;;;;1.10;0.45;;;24.40;44.70;;;;;;2456191;53;21961;-70
2022/08/06 02:39:08;;;;;;;1.08;0.52;;;24.40;44.60;;;;;;2590589;53;20941;-70
2022/08/06 02:42:09;;;;;;;1.55;0.77;;;24.40;44.60;;;;;;2563123;53;21449;-70
2022/08/06 02:46:29;;;;;;;1.37;0.60;;;24.40;44.70;;;;;;2342184;54;21458;-71
2022/08/06 02:49:17;;;;;;;0.98;0.50;;;24.40;44.50;;;;;;2411347;53;20901;-70
2022/08/06 02:51:50;;;;;;;1.58;0.60;;;24.40;44.40;;;;;;2311151;54;21043;-74
2022/08/06 02:54:22;;;;;;;2.08;0.60;;;24.40;44.50;;;;;;2319350;54;20962;-71
2022/08/06 02:56:49;;;;;;;2.05;0.50;;;24.40;44.60;;;;;;2320663;54;21005;-70
2022/08/06 02:59:20;;;;;;;1.23;0.52;;;24.40;44.50;;;;;;2434200;53;21007;-73
2022/08/06 03:01:50;;;;;;;3.00;0.62;;;24.30;44.50;;;;;;2314283;55;21448;-70
2022/08/06 03:04:17;;;;;;;1.45;0.68;;;24.30;44.50;;;;;;2538448;54;20985;-71
2022/08/06 03:06:45;;;;;;;1.27;0.60;;;24.30;44.40;;;;;;2583469;53;21014;-70
2022/08/06 03:09:11;;;;;;;2.17;0.65;;;24.30;44.50;;;;;;2386786;53;21021;-71
2022/08/06 03:11:40;;;;;;;1.12;0.60;;;24.30;44.50;;;;;;2332524;54;21053;-70
2022/08/06 03:14:07;;;;;;;0.98;0.40;;;24.30;44.60;;;;;;2351110;53;21044;-73
2022/08/06 03:16:37;;;;;;;1.30;0.40;;;24.30;44.50;;;;;;2329779;54;20946;-70
2022/08/06 03:19:04;;;;;;;1.65;0.50;;;24.30;44.40;;;;;;2528989;53;20950;-69
2022/08/06 03:21:31;;;;;;;1.27;0.50;;;24.20;44.30;;;;;;2347039;54;20931;-71
2022/08/06 03:24:00;;;;;;;1.80;0.60;;;24.20;44.20;;;;;;2458667;54;20970;-71
2022/08/06 03:26:27;;;;;;;1.75;0.60;;;24.20;44.20;;;;;;2496224;53;21906;-71
2022/08/06 03:32:19;;;;;;;1.42;0.68;;;24.20;44.30;;;;;;2343943;54;20986;-71
2022/08/06 03:34:46;;;;;;;1.87;0.62;;;24.10;44.10;;;;;;2485387;53;20947;-72
2022/08/06 03:37:12;;;;;;;1.70;0.60;;;24.10;44.20;;;;;;2341912;55;20950;-71
2022/08/06 03:39:41;;;;;;;2.65;0.60;;;24.10;44.20;;;;;;2324830;54;20947;-70
2022/08/06 03:42:16;;;;;;;1.10;0.50;;;24.10;44.20;;;;;;2326882;54;20971;-70
2022/08/06 03:44:43;;;;;;;1.85;0.70;;;24.00;44.20;;;;;;2364767;54;21519;-71
2022/08/06 03:47:32;;;;;;;1.58;0.60;;;24.00;44.30;;;;;;2343958;54;21738;-71
2022/08/06 03:50:26;;;;;;;1.27;0.60;;;24.00;44.30;;;;;;2585751;53;20943;-71
2022/08/06 03:53:02;;;;;;;3.25;1.17;;;23.90;44.20;;;;;;2324429;54;21429;-70
2022/08/06 03:55:31;;;;;;;1.70;0.60;;;23.90;44.30;;;;;;2591264;53;21045;-72
2022/08/06 03:58:02;;;;;;;1.37;0.60;;;23.90;44.30;;;;;;2582940;53;20995;-70
2022/08/06 04:00:36;;;;;;;1.70;0.70;;;23.80;44.30;;;;;;2319290;54;21141;-69
2022/08/06 04:03:04;;;;;;;1.95;0.60;;;23.80;44.30;;;;;;2335514;54;20938;-73
2022/08/06 04:05:32;;;;;;;1.73;0.47;;;23.80;44.20;;;;;;2585610;53;20930;-70
2022/08/06 04:07:59;;;;;;;1.33;0.60;;;23.80;44.20;;;;;;2341315;54;20922;-70
2022/08/06 04:10:32;;;;;;;1.25;0.50;;;23.70;44.30;;;;;;2495325;53;21547;-69
2022/08/06 04:13:02;;;;;;;1.60;0.60;;;23.70;44.30;;;;;;2343020;54;20953;-70
2022/08/06 04:15:29;;;;;;;0.68;0.40;;;23.70;44.40;;;;;;2321378;54;20969;-70
2022/08/06 04:17:56;;;;;;;1.37;0.40;;;23.70;44.40;;;;;;2344463;55;20926;-70
2022/08/06 04:20:26;;;;;;;4.07;0.90;;;23.60;44.30;;;;;;2590996;53;20946;-71
2022/08/06 04:22:52;;;;;;;3.08;0.68;;;23.60;44.50;;;;;;2343540;54;20931;-70
2022/08/06 04:25:19;;;;;;;1.15;0.55;;;23.60;44.40;;;;;;2584577;53;20990;-70
2022/08/06 04:27:45;;;;;;;1.10;0.50;;;23.50;44.30;;;;;;2346064;54;20946;-73
2022/08/06 04:30:12;;;;;;;3.28;0.75;;;23.50;44.40;;;;;;2330525;54;20950;-69
2022/08/06 04:32:39;;;;;;;1.00;0.50;;;23.50;44.40;;;;;;2332451;54;20985;-70
2022/08/06 04:35:06;;;;;;;1.25;0.65;;;23.50;44.40;;;;;;2375121;53;20994;-72
2022/08/06 04:37:33;;;;;;;1.05;0.50;;;23.40;44.20;;;;;;2338903;54;20986;-70
2022/08/06 04:40:00;;;;;;;1.12;0.50;;;23.40;44.20;;;;;;2562772;53;20950;-72
2022/08/06 04:42:44;;;;;;;1.73;0.60;;;23.40;44.30;;;;;;2334108;54;20982;-68
2022/08/06 04:45:10;;;;;;;1.50;0.45;;;23.40;44.50;;;;;;2476630;53;21004;-70
2022/08/06 04:47:37;;;;;;;1.45;0.60;;;23.30;44.40;;;;;;2344660;55;20934;-70
2022/08/06 04:50:04;;;;;;;1.33;0.52;;;23.30;44.50;;;;;;2459330;53;21006;-72
2022/08/06 04:52:30;;;;;;;1.27;0.60;;;23.30;44.50;;;;;;2320087;54;21697;-70
2022/08/06 04:54:57;;;;;;;1.75;0.60;;;23.30;44.40;;;;;;2573930;53;20977;-71
2022/08/06 04:57:24;;;;;;;2.25;0.70;;;23.30;44.40;;;;;;2343827;55;20954;-70
2022/08/06 04:59:51;;;;;;;1.12;0.50;;;23.20;44.40;;;;;;2590535;53;21789;-70
2022/08/06 05:02:18;;;;;;;1.48;0.60;;;23.20;44.40;;;;;;2369687;53;20970;-72
2022/08/06 05:04:45;;;;;;;2.65;0.68;;;23.20;44.30;;;;;;2560827;53;20935;-70
2022/08/06 05:07:21;;;;;;;1.35;0.60;;;23.20;44.30;;;;;;2325667;54;20991;-71
2022/08/06 05:09:48;;;;;;;2.10;0.55;;;23.10;44.30;;;;;;2376398;53;21502;-71
2022/08/06 05:12:37;;;;;;;2.25;0.77;;;23.10;44.30;;;;;;2344380;54;21053;-70
2022/08/06 05:15:51;;;;;;;0.90;0.50;;;23.00;44.30;;;;;;2591041;53;20934;-70
2022/08/06 05:18:21;;;;;;;1.48;0.60;;;23.00;44.40;;;;;;2344817;55;21054;-69
2022/08/06 05:20:49;;;;;;;1.60;0.60;;;23.00;44.30;;;;;;2590881;53;20930;-70
2022/08/06 05:23:20;;;;;;;1.58;0.52;;;22.90;44.20;;;;;;2344405;55;20903;-72
2022/08/06 05:25:50;;;;;;;1.55;0.68;;;22.90;44.40;;;;;;2464394;53;20909;-70
2022/08/06 05:28:16;;;;;;;2.42;0.60;;;22.90;44.60;;;;;;2576477;53;21500;-69
2022/08/06 05:30:52;;;;;;;2.72;0.70;;;22.90;44.60;;;;;;2350033;53;20934;-70
2022/08/06 05:33:26;;;;;;;1.95;0.70;;;22.90;45.00;;;;;;2335524;54;20956;-70
2022/08/06 05:35:54;;;;;;;1.30;0.50;;;22.80;44.80;;;;;;2566002;53;21440;-72
2022/08/06 05:38:20;;;;;;;1.73;0.60;;;22.80;44.80;;;;;;2337694;54;21291;-68
2022/08/06 05:40:47;;;;;;;3.58;0.70;;;22.80;44.80;;;;;;2382403;53;21423;-70
2022/08/06 05:43:15;;;;;;;1.62;0.80;;;22.80;44.80;;;;;;2342660;54;20938;-70
2022/08/06 05:45:42;;;;;;;2.37;0.75;;;22.80;44.80;;;;;;2562296;53;21033;-70
2022/08/06 05:48:13;;;;;;;1.58;0.70;;;22.80;44.80;;;;;;2315950;55;20932;-71
2022/08/06 05:50:57;;;;;;;2.15;0.80;;;22.80;44.90;;;;;;2555050;54;20981;-70
2022/08/06 05:53:42;;;;;;;2.05;0.70;;;22.80;45.60;;;;;;2340206;54;20964;-69
2022/08/06 05:56:12;;;;;;;1.50;0.60;;;22.80;45.00;;;;;;2412452;53;20899;-70
2022/08/06 05:58:52;;;;;;;2.70;1.00;;;22.70;44.90;;;;;;2341286;53;21673;-69
2022/08/06 06:01:19;;;;;;;1.27;0.57;;;22.70;45.10;;;;;;2573221;53;21058;-68
2022/08/06 06:03:45;;;;;;;2.78;0.80;;;22.70;45.00;;;;;;2330036;54;20930;-70
2022/08/06 06:06:13;;;;;;;2.65;0.68;;;22.70;45.20;;;;;;2338190;53;20930;-70
2022/08/06 06:08:41;;;;;;;1.33;0.68;;;22.60;45.20;;;;;;2342424;54;21049;-71
2022/08/06 06:11:08;;;;;;;2.05;0.90;;;22.70;45.40;;;;;;2463241;53;21057;-68
2022/08/06 06:13:34;;;;;;;2.12;0.70;;;22.60;45.30;;;;;;2398703;53;21089;-72
2022/08/06 06:19:51;;;;;;;2.67;0.80;;;22.60;45.40;;;;;;2588926;53;21031;-70
2022/08/06 06:22:34;;;;;;;2.05;0.70;;;22.70;45.70;;;;;;2410066;53;21086;-69
2022/08/06 06:25:09;;;;;;;1.65;0.65;;;22.70;45.50;;;;;;2326527;54;21437;-70
2022/08/06 06:28:00;;;;;;;2.40;0.70;;;22.70;45.50;;;;;;2460650;53;20979;-70
2022/08/06 06:30:33;;;;;;;1.95;0.73;;;22.70;45.80;;;;;;2329472;55;21051;-70
2022/08/06 06:33:22;;;;;;;2.33;0.60;;;22.70;45.70;;;;;;2342786;54;20927;-70
2022/08/06 06:35:56;;;;;;;2.00;0.70;;;22.70;46.00;;;;;;2378320;53;20997;-73
2022/08/06 06:39:08;;;;;;;1.58;0.70;;;22.70;45.90;;;;;;2305110;55;20959;-70
2022/08/06 06:41:47;;;;;;;1.80;0.70;;;22.70;46.00;;;;;;2344056;53;21025;-72
2022/08/06 06:44:54;;;;;;;2.28;0.80;;;22.70;46.00;;;;;;2339020;55;21013;-70
2022/08/06 06:48:57;;;;;;;1.95;0.80;;;22.80;46.20;;;;;;2368815;53;20966;-70
2022/08/06 06:51:45;;;;;;;6.37;0.90;;;22.80;46.00;;;;;;2309713;54;20976;-69
2022/08/06 06:54:16;;;;;;;3.55;0.80;;;22.80;46.00;;;;;;2303442;54;21527;-71
2022/08/06 06:56:44;;;;;;;2.42;0.82;;;22.80;45.80;;;;;;2315267;54;20963;-72
2022/08/06 06:59:18;;;;;;;2.15;0.90;;;22.80;45.90;;;;;;2315795;54;20999;-70
2022/08/06 07:01:46;;;;;;;2.37;1.00;;;22.90;46.20;;;;;;2315744;54;20945;-71
2022/08/06 07:04:40;;;;;;;2.17;0.80;;;22.90;46.20;;;;;;2312285;54;21504;-70
2022/08/06 07:07:06;;;;;;;2.17;0.75;;;22.90;46.40;;;;;;2542820;53;20939;-70
2022/08/06 07:09:33;;;;;;;1.58;0.70;;;22.90;46.20;;;;;;2394461;54;22068;-71
2022/08/06 07:11:59;;;;;;;2.87;0.70;;;23.00;46.30;;;;;;2315048;54;20933;-72
2022/08/06 07:14:30;;;;;;;1.70;0.70;;;23.00;46.30;;;;;;2358917;54;20979;-71
2022/08/06 07:17:05;;;;;;;3.30;0.65;;;23.00;46.50;;;;;;2315185;54;21039;-70
2022/08/06 07:19:31;;;;;;;1.73;0.70;;;23.00;46.50;;;;;;2341671;54;21002;-74
2022/08/06 07:21:58;;;;;;;3.47;0.65;;;23.10;46.40;;;;;;2320124;55;21041;-69
2022/08/06 07:24:25;;;;;;;1.73;0.80;;;23.10;46.40;;;;;;2315710;53;20903;-70
2022/08/06 07:26:52;;;;;;;1.98;0.80;;;23.20;46.40;;;;;;2542403;53;20979;-71
2022/08/06 07:29:18;;;;;;;3.37;0.95;;;23.20;46.40;;;;;;2328861;54;20928;-70
2022/08/06 07:31:46;;;;;;;2.28;0.90;;;23.30;46.50;;;;;;2342641;55;21018;-71
2022/08/06 07:34:13;;;;;;;2.70;0.75;;;23.30;46.50;;;;;;2336799;54;21521;-70
2022/08/06 07:36:44;;;;;;;2.85;0.90;;;23.40;46.50;;;;;;2324554;54;21015;-70
2022/08/06 07:39:13;;;;;;;2.62;0.70;;;23.40;46.40;;;;;;2370289;53;20950;-71
2022/08/06 07:41:52;;;;;;;3.58;0.73;;;23.40;46.40;;;;;;2340673;54;21509;-70
2022/08/06 07:44:20;;;;;;;2.60;0.98;;;23.50;46.60;;;;;;2587017;53;21001;-68
2022/08/06 07:46:50;;;;;;;2.40;0.95;;;23.50;46.40;;;;;;2342405;55;20954;-70
2022/08/06 07:49:41;;;;;;;2.50;0.85;;;23.50;46.50;;;;;;2410227;53;21010;-70
2022/08/06 07:52:09;;;;;;;2.03;0.80;;;23.70;46.90;;;;;;2345379;54;21740;-69
2022/08/06 07:54:36;;;;;;;2.50;0.75;;;23.70;46.70;;;;;;2458414;54;21373;-73
2022/08/06 07:57:03;;;;;;;2.00;0.80;;;23.80;46.70;;;;;;2342296;55;20938;-70
2022/08/06 07:59:30;;;;;;;1.85;0.77;;;23.90;46.70;;;;;;2362409;54;20943;-72
2022/08/06 08:01:57;;;;;;;2.50;0.85;;;24.00;46.50;;;;;;2313007;55;20939;-71
2022/08/06 08:08:13;;;;;;;1.70;0.70;;;24.10;46.20;;;;;;2315511;54;21564;-69
2022/08/06 08:10:41;;;;;;;1.37;0.70;;;24.20;46.10;;;;;;2386975;53;21023;-70
2022/08/06 08:13:07;;;;;;;2.87;0.80;;;24.30;46.00;;;;;;2416630;53;20945;-70
2022/08/06 08:15:34;;;;;;;1.65;0.70;;;24.30;45.90;;;;;;2411641;53;21352;-70
2022/08/06 08:18:00;;;;;;;1.87;0.68;;;24.40;45.90;;;;;;2342130;54;20966;-70
2022/08/06 08:20:28;;;;;;;5.78;0.90;;;24.40;45.80;;;;;;2338290;54;20954;-72
2022/08/06 08:22:58;;;;;;;2.42;0.70;;;24.50;45.90;;;;;;2318409;54;21009;-74
2022/08/06 08:25:25;;;;;;;2.35;0.82;;;24.50;45.70;;;;;;2334664;54;21725;-70
2022/08/06 08:27:52;;;;;;;2.08;0.70;;;24.60;45.70;;;;;;2342162;55;20998;-72
2022/08/06 08:30:19;;;;;;;1.65;0.68;;;24.60;45.60;;;;;;2330472;54;20956;-73
2022/08/06 08:32:45;;;;;;;1.58;0.68;;;24.70;45.70;;;;;;2331956;54;21049;-73
2022/08/06 08:35:15;;;;;;;1.90;0.70;;;24.80;45.70;;;;;;2341041;54;21021;-71
2022/08/06 08:37:42;;;;;;;1.87;0.70;;;24.80;45.70;;;;;;2498951;54;21004;-70
2022/08/06 08:40:10;;;;;;;1.25;0.62;;;24.90;45.70;;;;;;2341223;54;20950;-72
2022/08/06 08:42:40;;;;;;;2.05;0.75;;;24.90;45.40;;;;;;2335425;54;21029;-73
2022/08/06 08:45:06;;;;;;;1.65;0.80;;;25.00;45.30;;;;;;2339011;54;20962;-71
2022/08/06 08:47:34;;;;;;;2.40;0.80;;;25.00;45.10;;;;;;2574227;53;21580;-70
2022/08/06 08:50:01;;;;;;;2.42;0.80;;;25.10;45.10;;;;;;2342721;54;21029;-71
2022/08/06 08:52:33;;;;;;;2.92;1.00;;;25.20;45.20;;;;;;2334087;54;20951;-70
2022/08/06 08:55:03;;;;;;;2.40;0.90;;;25.20;45.00;;;;;;2332887;54;21321;-70
2022/08/06 08:57:29;;;;;;;2.10;0.90;;;25.30;44.90;;;;;;2342666;55;21002;-71
2022/08/06 08:59:56;;;;;;;2.40;0.90;;;25.40;44.70;;;;;;2329050;54;21373;-71
2022/08/06 09:02:27;;;;;;;1.62;0.80;;;25.40;44.60;;;;;;2315853;55;21025;-71
2022/08/06 09:04:54;;;;;;;1.73;0.80;;;25.40;44.60;;;;;;2535201;53;21062;-70
2022/08/06 09:07:31;;;;;;;1.90;0.82;;;25.50;44.60;;;;;;2338355;54;20914;-71
2022/08/06 09:09:58;;;;;;;1.90;0.70;;;25.60;44.70;;;;;;2539974;53;21586;-71
2022/08/06 09:12:24;;;;;;;2.42;0.80;;;25.60;44.60;;;;;;2318028;54;20953;-71
2022/08/06 09:14:51;;;;;;;2.83;0.95;;;25.70;44.60;;;;;;2342396;54;20970;-74
2022/08/06 09:17:18;;;;;;;2.10;0.80;;;25.70;44.30;;;;;;2411714;53;21483;-71
2022/08/06 09:19:44;;;;;;;2.40;0.80;;;25.70;44.10;;;;;;2342561;54;20949;-71
2022/08/06 09:22:11;;;;;;;2.62;0.93;;;25.80;44.00;;;;;;2339921;55;20958;-70
2022/08/06 09:24:38;;;;;;;2.22;0.80;;;25.90;43.90;;;;;;2341044;54;20938;-70
2022/08/06 09:27:18;;;;;;;2.87;0.90;;;26.00;43.80;;;;;;2342960;54;20926;-69
2022/08/06 09:30:48;;;;;;;1.80;0.80;;;26.00;43.50;;;;;;2339078;55;21006;-71
2022/08/06 09:33:17;;;;;;;1.83;0.80;;;26.10;43.60;;;;;;2575319;53;21804;-72
2022/08/06 09:35:44;;;;;;;2.50;0.85;;;26.10;43.50;;;;;;2341038;54;21938;-71
2022/08/06 09:38:33;;;;;;;2.22;0.85;;;26.10;43.40;;;;;;2340599;55;21867;-69
2022/08/06 09:41:10;;;;;;;1.90;0.70;;;26.30;43.60;;;;;;2305482;54;21146;-71
2022/08/06 09:43:37;;;;;;;3.17;1.10;;;26.30;43.60;;;;;;2311554;54;20995;-70
2022/08/06 09:46:04;;;;;;;2.83;0.85;;;26.30;43.30;;;;;;2310206;54;21047;-72
2022/08/06 09:48:30;;;;;;;3.60;0.90;;;26.40;43.30;;;;;;2366028;54;20955;-72
2022/08/06 09:51:00;;;;;;;1.50;0.60;;;26.40;43.10;;;;;;2315302;54;20927;-70
2022/08/06 09:53:57;;;;;;;1.90;0.60;;;26.50;43.00;;;;;;2317847;54;20981;-74
2022/08/06 09:56:24;;;;;;;1.42;0.60;;;26.50;43.00;;;;;;2328892;54;20945;-70
2022/08/06 09:58:56;;;;;;;2.47;0.55;;;26.60;43.10;;;;;;2342231;55;20972;-71
2022/08/06 10:01:23;;;;;;;1.23;0.60;;;26.60;42.90;;;;;;2328748;54;20989;-72
2022/08/06 10:03:50;;;;;;;1.83;0.52;;;26.70;43.10;;;;;;2315674;54;21995;-69
2022/08/06 10:06:28;;;;;;;1.80;0.70;;;26.70;42.80;;;;;;2342488;55;21011;-69
2022/08/06 10:09:11;;;;;;;2.42;0.70;;;26.80;42.40;;;;;;2342409;54;21524;-70
2022/08/06 10:11:40;;;;;;;1.73;0.60;;;26.90;42.50;;;;;;2332320;54;20913;-70
2022/08/06 10:14:25;;;;;;;2.72;0.90;;;26.90;42.40;;;;;;2308970;55;21033;-72
2022/08/06 10:17:03;;;;;;;1.85;0.80;;;26.90;42.30;;;;;;2336293;54;21037;-71
2022/08/06 10:19:31;;;;;;;2.15;0.80;;;27.00;41.90;;;;;;2328620;54;20968;-70
2022/08/06 10:22:17;;;;;;;1.87;0.60;;;27.10;42.00;;;;;;2334173;55;20960;-70
2022/08/06 10:24:48;;;;;;;1.98;0.60;;;27.10;41.80;;;;;;2335036;55;21473;-74
2022/08/06 10:27:34;;;;;;;4.25;0.95;;;27.10;41.90;;;;;;2373949;53;21783;-73
2022/08/06 10:30:53;;;;;;;1.65;0.90;;;27.20;41.20;;;;;;2342649;54;20925;-74
2022/08/06 10:33:19;;;;;;;1.77;0.75;;;27.30;41.00;;;;;;2339685;55;20980;-71
2022/08/06 10:35:46;;;;;;;1.42;0.70;;;27.30;41.20;;;;;;2336850;54;20985;-71
2022/08/06 10:38:26;;;;;;;2.20;0.75;;;27.30;41.00;;;;;;2578051;53;20937;-72
2022/08/06 10:40:53;;;;;;;1.37;0.52;;;27.30;40.60;;;;;;2315721;54;20945;-71
2022/08/06 10:43:19;;;;;;;2.08;0.60;;;27.30;40.80;;;;;;2342541;54;21556;-71
2022/08/06 10:45:46;;;;;;;1.67;0.52;;;27.30;40.80;;;;;;2317806;54;20982;-73
2022/08/06 10:48:13;;;;;;;1.00;0.50;;;27.40;40.80;;;;;;2337265;54;20965;-72
2022/08/06 10:51:10;;;;;;;2.37;0.70;;;27.40;40.70;;;;;;2327896;54;20977;-73
2022/08/06 10:53:45;;;;;;;1.85;0.60;;;27.40;40.30;;;;;;2556879;53;21037;-71
2022/08/06 10:56:14;;;;;;;2.25;0.62;;;27.50;40.50;;;;;;2342658;55;20945;-73
2022/08/06 10:58:40;;;;;;;1.27;0.50;;;27.50;40.60;;;;;;2500504;53;20980;-72
2022/08/06 11:02:01;;;;;;;1.37;0.50;;;27.50;40.70;;;;;;2504635;53;20984;-70
2022/08/06 11:04:49;;;;;;;1.25;0.40;;;27.60;40.60;;;;;;2319778;54;20929;-71
2022/08/06 11:07:44;;;;;;;2.10;0.70;;;27.70;40.30;;;;;;2315302;54;21009;-71
2022/08/06 11:13:38;;;;;;;1.85;0.50;;;27.70;40.20;;;;;;2587692;53;20940;-71
2022/08/06 11:16:04;;;;;;;2.05;0.75;;;27.80;40.20;;;;;;2339908;54;21835;-72
2022/08/06 11:18:34;;;;;;;3.15;0.65;;;27.80;39.80;;;;;;2341522;55;20916;-72
2022/08/06 11:21:01;;;;;;;1.55;0.50;;;27.90;39.60;;;;;;2336624;54;21920;-70
2022/08/06 11:23:29;;;;;;;1.35;0.57;;;27.90;39.60;;;;;;2530281;53;20957;-73
2022/08/06 11:25:57;;;;;;;1.15;0.50;;;27.90;39.30;;;;;;2334637;54;21012;-71
2022/08/06 11:28:58;;;;;;;1.10;0.50;;;28.00;39.40;;;;;;2506378;54;20978;-71
2022/08/06 11:31:38;;;;;;;1.45;0.50;;;28.00;39.00;;;;;;2317355;54;21211;-71
2022/08/06 11:34:09;;;;;;;2.70;0.47;;;28.00;39.00;;;;;;2339566;54;20944;-72
2022/08/06 11:36:53;;;;;;;1.30;0.50;;;28.10;39.00;;;;;;2346470;53;20929;-74
2022/08/06 11:39:20;;;;;;;1.92;0.60;;;28.10;38.30;;;;;;2341695;55;21858;-71
2022/08/06 11:42:03;;;;;;;2.50;0.55;;;28.20;38.70;;;;;;2342152;54;20968;-71
2022/08/06 11:44:31;;;;;;;1.25;0.50;;;28.20;38.30;;;;;;2337586;55;21008;-71
2022/08/06 11:47:11;;;;;;;2.00;0.70;;;28.20;38.40;;;;;;2344201;54;21028;-72
2022/08/06 11:49:46;;;;;;;1.73;0.70;;;28.30;38.10;;;;;;2341734;54;21083;-72
2022/08/06 11:52:57;;;;;;;1.60;0.60;;;28.30;38.20;;;;;;2342495;55;21012;-72
2022/08/06 11:55:24;;;;;;;1.27;0.50;;;28.40;37.90;;;;;;2308044;55;21576;-70
2022/08/06 11:58:22;;;;;;;1.90;0.65;;;28.40;38.00;;;;;;2342530;54;20937;-72
2022/08/06 12:00:59;;;;;;;3.22;0.50;;;28.50;37.50;;;;;;2339946;54;21197;-72
2022/08/06 12:03:38;;;;;;;1.05;0.50;;;28.50;37.70;;;;;;2439745;54;20983;-71
2022/08/06 12:06:24;;;;;;;3.33;0.60;;;28.60;37.50;;;;;;2313749;54;20953;-72
2022/08/06 12:09:36;;;;;;;2.80;0.80;;;28.60;37.20;;;;;;2314971;54;21801;-73
2022/08/06 12:12:21;;;;;;;;;;;28.70;37.10;;;;;;2318921;54;20952;-71
2022/08/06 12:15:01;;;;;;;1.52;0.52;;;28.70;37.60;;;;;;2314539;54;20113;-72
2022/08/06 12:17:31;;;;;;;1.20;0.50;;;28.80;36.90;;;;;;2556164;54;21023;-70
2022/08/06 12:20:02;;;;;;;1.40;0.60;;;28.80;37.00;;;;;;2314990;54;20938;-71
2022/08/06 12:22:31;;;;;;;1.35;0.47;;;28.80;36.90;;;;;;2523557;54;20938;-73
2022/08/06 12:24:58;;;;;;;1.65;0.52;;;28.80;37.00;;;;;;2313614;53;20923;-71
2022/08/06 12:27:34;;;;;;;1.10;0.50;;;28.90;37.10;;;;;;2489096;54;20971;-71
2022/08/06 12:30:01;;;;;;;1.20;0.60;;;28.90;37.00;;;;;;2545768;54;20928;-72
2022/08/06 12:32:43;;;;;;;1.30;0.55;;;29.00;36.90;;;;;;2414290;54;21820;-75
2022/08/06 12:35:10;;;;;;;2.47;0.80;;;29.00;36.30;;;;;;2556028;54;21015;-71
2022/08/06 12:37:44;;;;;;;2.05;0.60;;;29.10;36.50;;;;;;2556886;53;21067;-72
2022/08/06 12:40:26;;;;;;;1.25;0.60;;;29.10;36.30;;;;;;2403086;54;20955;-74
2022/08/06 12:43:26;;;;;;;;;;;29.20;36.50;;;;;;2318064;54;21118;-70
2022/08/06 12:45:58;;;;;;;1.55;0.47;;;29.20;36.50;;;;;;2555112;54;20605;-71
2022/08/06 12:48:24;;;;;;;1.43;0.50;;;29.30;36.50;;;;;;2324460;54;20971;-72
2022/08/06 12:51:13;;;;;;;3.15;0.50;;;29.40;36.50;;;;;;2315860;54;20980;-72
2022/08/06 12:53:42;;;;;;;3.30;0.75;;;29.40;35.80;;;;;;2346715;54;20982;-75
2022/08/06 12:56:10;;;;;;;1.85;0.70;;;29.50;36.30;;;;;;2314609;55;20951;-72
2022/08/06 12:58:37;;;;;;;1.85;0.50;;;29.50;36.10;;;;;;2554880;53;20947;-71
2022/08/06 13:01:24;;;;;;;2.70;0.60;;;29.60;36.30;;;;;;2369194;54;20945;-74
2022/08/06 13:03:53;;;;;;;2.28;0.80;;;29.70;35.40;;;;;;2561946;53;20982;-73
2022/08/06 13:06:21;;;;;;;2.00;0.70;;;29.70;35.30;;;;;;2334890;54;22048;-72
2022/08/06 13:08:49;;;;;;;1.50;0.60;;;29.70;35.10;;;;;;2580260;53;21047;-72
2022/08/06 13:11:16;;;;;;;1.37;0.50;;;29.70;34.90;;;;;;2318934;54;20961;-74
2022/08/06 13:13:47;;;;;;;1.30;0.60;;;29.70;35.00;;;;;;2342700;55;20998;-72
2022/08/06 13:16:14;;;;;;;1.98;0.70;;;29.70;34.70;;;;;;2420302;53;21427;-73
2022/08/06 13:18:43;;;;;;;1.45;0.70;;;29.80;34.70;;;;;;2483345;53;21006;-74
2022/08/06 13:21:22;;;;;;;1.23;0.50;;;29.80;34.80;;;;;;2343045;55;21054;-74
2022/08/06 13:23:54;;;;;;;2.03;0.80;;;29.80;34.70;;;;;;2342271;54;21542;-74
2022/08/06 13:26:28;;;;;;;1.55;0.70;;;29.90;34.80;;;;;;2337365;55;21021;-73
2022/08/06 13:29:12;;;;;;;0.82;0.37;;;29.90;34.60;;;;;;2420290;53;20983;-73
2022/08/06 13:31:40;;;;;;;1.77;0.62;;;29.90;34.50;;;;;;2424041;54;21038;-72
2022/08/06 13:34:22;;;;;;;1.92;0.60;;;30.00;34.60;;;;;;2561238;53;21030;-73
2022/08/06 13:36:53;;;;;;;;;;;30.00;34.20;;;;;;2336099;55;20952;-73
2022/08/06 13:39:30;;;;;;;1.62;0.60;;;30.10;34.80;;;;;;2342671;55;20118;-72